Time;durP1;ratioP1;P1;durP2;ratioP2;P2;SDS_P1;SDS_P2;PMS_P1;PMS_P2;Temp;Humidity;BMP_temperature;BMP_pressure;BME280_temperature;BME280_humidity;BME280_pressure;Samples;Min_cycle;Max_cycle;Signal;HPM_P1;HPM_P2
2021/01/09 00:01:39;;;;;;;5.20;4.30;;;5.20;99.90;;;;;;6183477;23;20458;-84
2021/01/09 00:04:11;;;;;;;4.78;4.35;;;5.10;99.90;;;;;;6183975;23;20100;-86
2021/01/09 00:06:48;;;;;;;5.03;4.53;;;5.10;99.90;;;;;;6188783;23;20012;-88
2021/01/09 00:09:14;;;;;;;4.88;4.38;;;5.10;99.90;;;;;;6186538;23;20001;-85
2021/01/09 00:11:40;;;;;;;5.55;4.63;;;5.10;99.90;;;;;;6184534;23;20013;-87
2021/01/09 00:14:06;;;;;;;5.30;4.40;;;5.10;99.90;;;;;;6187108;23;20012;-88
2021/01/09 00:16:33;;;;;;;5.15;4.43;;;5.10;99.90;;;;;;6185454;23;20017;-86
2021/01/09 00:19:03;;;;;;;4.30;3.88;;;5.20;99.90;;;;;;6185071;23;20105;-84
2021/01/09 00:21:36;;;;;;;5.30;4.80;;;5.20;99.90;;;;;;6184818;23;20120;-88
2021/01/09 00:24:03;;;;;;;4.70;4.20;;;5.20;99.90;;;;;;6183888;23;20035;-87
2021/01/09 00:26:29;;;;;;;5.30;4.13;;;5.20;99.90;;;;;;6184198;23;20009;-90
2021/01/09 00:28:55;;;;;;;5.13;4.40;;;5.10;99.90;;;;;;6184445;23;20100;-85
2021/01/09 00:31:23;;;;;;;5.10;4.20;;;5.10;99.90;;;;;;6190652;23;20013;-89
2021/01/09 00:33:49;;;;;;;5.20;4.03;;;5.10;99.90;;;;;;6188057;23;20403;-91
2021/01/09 00:36:15;;;;;;;4.50;4.10;;;5.10;99.90;;;;;;6187613;23;20048;-85
2021/01/09 00:38:41;;;;;;;4.45;4.05;;;5.20;99.90;;;;;;6187845;23;19997;-90
2021/01/09 00:41:07;;;;;;;4.35;3.95;;;5.20;99.90;;;;;;6185232;23;20024;-88
2021/01/09 00:43:32;;;;;;;4.50;4.03;;;5.20;99.90;;;;;;6185024;23;20005;-91
2021/01/09 00:46:04;;;;;;;5.85;4.68;;;5.30;99.90;;;;;;6182632;23;20001;-89
2021/01/09 00:48:30;;;;;;;5.30;4.28;;;5.10;99.90;;;;;;6184217;23;20029;-85
2021/01/09 00:51:05;;;;;;;4.78;4.00;;;5.20;99.90;;;;;;6184637;23;20377;-87
2021/01/09 00:53:31;;;;;;;5.78;4.30;;;5.40;99.90;;;;;;6183026;23;20054;-85
2021/01/09 00:55:56;;;;;;;4.25;3.85;;;5.40;99.90;;;;;;6182946;23;20053;-86
2021/01/09 00:58:22;;;;;;;5.18;4.43;;;5.40;99.90;;;;;;6183060;23;20388;-87
2021/01/09 01:00:48;;;;;;;4.70;4.25;;;5.30;99.90;;;;;;6184965;23;20005;-85
2021/01/09 01:03:14;;;;;;;4.60;4.20;;;5.20;99.90;;;;;;6185141;23;20001;-83
2021/01/09 01:05:44;;;;;;;4.82;4.18;;;5.10;99.90;;;;;;6185372;23;20140;-86
2021/01/09 01:08:09;;;;;;;5.35;4.10;;;5.10;99.90;;;;;;6183042;23;20005;-86
2021/01/09 01:10:35;;;;;;;4.65;3.90;;;5.30;99.90;;;;;;6183024;23;20019;-86
2021/01/09 01:13:01;;;;;;;3.97;3.58;;;5.30;99.90;;;;;;6184647;23;20009;-88
2021/01/09 01:15:31;;;;;;;4.18;3.78;;;5.30;99.90;;;;;;6181973;23;20076;-87
2021/01/09 01:17:57;;;;;;;4.55;3.95;;;5.40;99.90;;;;;;6183058;23;20009;-87
2021/01/09 01:20:23;;;;;;;4.20;3.80;;;5.60;99.90;;;;;;6182657;23;20071;-84
2021/01/09 01:22:48;;;;;;;4.20;3.60;;;5.50;99.90;;;;;;6182511;23;20013;-88
2021/01/09 01:25:15;;;;;;;3.92;3.53;;;5.50;99.90;;;;;;6182735;23;20005;-84
2021/01/09 01:27:44;;;;;;;4.20;3.80;;;5.40;99.90;;;;;;6184727;23;20020;-90
2021/01/09 01:30:10;;;;;;;4.75;4.18;;;5.30;99.90;;;;;;6184650;23;20005;-87
2021/01/09 01:32:45;;;;;;;4.35;3.95;;;5.40;99.90;;;;;;6183794;23;20013;-88
2021/01/09 01:35:11;;;;;;;4.90;3.97;;;5.40;99.90;;;;;;6185620;23;20075;-88
2021/01/09 01:37:36;;;;;;;4.20;3.80;;;5.20;99.90;;;;;;6183208;23;20379;-88
2021/01/09 01:40:06;;;;;;;4.10;3.70;;;5.20;99.90;;;;;;6184325;23;20048;-87
2021/01/09 01:42:41;;;;;;;30.45;14.93;;;5.20;99.90;;;;;;6161936;23;20024;-89
2021/01/09 01:45:10;;;;;;;6.30;5.40;;;5.50;99.90;;;;;;6186862;23;20378;-86
2021/01/09 01:47:41;;;;;;;4.70;4.20;;;5.40;99.90;;;;;;6182449;23;20593;-87
2021/01/09 01:50:07;;;;;;;4.30;3.90;;;5.30;99.90;;;;;;6182095;23;20443;-87
2021/01/09 01:53:23;;;;;;;4.70;4.15;;;5.30;99.90;;;;;;6183787;23;20055;-84
2021/01/09 01:55:50;;;;;;;4.72;4.30;;;5.30;99.90;;;;;;6091498;23;20007;-84
2021/01/09 01:58:16;;;;;;;5.28;4.05;;;5.20;99.90;;;;;;6093377;23;20007;-88
2021/01/09 02:01:37;;;;;;;6.65;4.50;;;5.30;99.90;;;;;;6067558;23;20578;-89
2021/01/09 02:04:07;;;;;;;4.90;4.40;;;5.30;99.90;;;;;;6068573;23;20035;-87
2021/01/09 02:06:36;;;;;;;4.68;4.10;;;5.10;99.90;;;;;;6068842;23;20477;-86
2021/01/09 02:09:28;;;;;;;4.60;4.18;;;5.20;99.90;;;;;;6068736;23;20045;-85
2021/01/09 02:12:48;;;;;;;5.82;4.50;;;5.00;99.90;;;;;;6068211;23;20023;-90
2021/01/09 02:15:34;;;;;;;4.95;4.00;;;5.10;99.90;;;;;;6182566;23;20429;-89
2021/01/09 02:18:00;;;;;;;15.93;9.38;;;5.30;99.90;;;;;;6186859;23;20008;-89
2021/01/09 02:20:30;;;;;;;50.95;24.35;;;5.70;99.90;;;;;;6187325;23;20362;-94
2021/01/09 02:22:56;;;;;;;10.18;6.85;;;6.00;99.90;;;;;;6184244;23;20093;-90
2021/01/09 02:25:25;;;;;;;8.98;6.45;;;5.90;99.90;;;;;;6187236;23;20005;-86
2021/01/09 02:27:54;;;;;;;4.75;4.25;;;6.20;99.90;;;;;;6184319;23;20008;-88
2021/01/09 02:30:25;;;;;;;4.65;4.15;;;5.70;99.90;;;;;;6183299;23;20012;-88
2021/01/09 02:33:29;;;;;;;4.38;3.97;;;5.60;99.90;;;;;;6182322;23;20194;-88
2021/01/09 02:42:46;;;;;;;5.28;4.30;;;5.20;99.90;;;;;;6159635;22;20027;-88
2021/01/09 02:45:15;;;;;;;5.15;4.40;;;5.50;99.90;;;;;;6159367;23;20008;-87
2021/01/09 02:47:52;;;;;;;5.07;4.40;;;5.40;99.90;;;;;;6159596;23;20331;-88
2021/01/09 02:50:21;;;;;;;4.78;4.28;;;5.40;99.90;;;;;;6159575;23;20000;-86
2021/01/09 02:52:56;;;;;;;5.18;4.07;;;5.10;99.90;;;;;;6184898;23;20335;-85
2021/01/09 02:55:21;;;;;;;5.15;4.30;;;5.10;99.90;;;;;;6159061;23;20001;-89
2021/01/09 02:57:47;;;;;;;4.55;4.05;;;5.20;99.90;;;;;;6185151;23;20024;-89
2021/01/09 03:00:25;;;;;;;5.40;4.45;;;5.10;99.90;;;;;;6159422;23;20016;-89
2021/01/09 03:02:59;;;;;;;5.50;4.20;;;5.20;99.90;;;;;;6185150;23;20008;-87
2021/01/09 03:05:50;;;;;;;5.43;3.83;;;5.20;99.90;;;;;;6185774;23;20025;-86
2021/01/09 03:08:16;;;;;;;4.97;4.47;;;5.30;99.90;;;;;;6158317;23;20518;-87
2021/01/09 03:10:41;;;;;;;4.75;4.25;;;5.20;99.90;;;;;;6185702;23;20037;-85
2021/01/09 03:13:07;;;;;;;4.90;4.35;;;5.10;99.90;;;;;;6184721;23;20032;-84
2021/01/09 03:15:35;;;;;;;4.93;4.43;;;5.20;99.90;;;;;;6185307;23;19997;-85
2021/01/09 03:18:13;;;;;;;4.72;4.25;;;5.10;99.90;;;;;;6185423;23;20108;-85
2021/01/09 03:20:48;;;;;;;5.25;4.75;;;5.40;99.90;;;;;;6158990;23;20005;-86
2021/01/09 03:23:17;;;;;;;4.70;4.10;;;5.10;99.90;;;;;;6185084;23;20048;-87
2021/01/09 03:26:17;;;;;;;6.80;4.88;;;5.00;99.90;;;;;;6185622;23;20008;-87
2021/01/09 03:28:43;;;;;;;4.70;4.20;;;4.90;99.90;;;;;;6185271;23;20063;-87
2021/01/09 03:31:17;;;;;;;5.60;4.78;;;4.90;99.90;;;;;;6185586;23;20009;-88
2021/01/09 03:33:58;;;;;;;5.65;4.72;;;4.90;99.90;;;;;;6158878;23;20009;-87
2021/01/09 03:36:37;;;;;;;4.80;4.22;;;4.90;99.90;;;;;;6158882;23;20419;-86
2021/01/09 03:39:03;;;;;;;5.63;4.80;;;5.10;99.90;;;;;;6184967;23;20059;-87
2021/01/09 03:41:29;;;;;;;5.60;4.85;;;5.00;99.90;;;;;;6159135;23;20027;-87
2021/01/09 03:43:55;;;;;;;6.13;5.10;;;5.00;99.90;;;;;;6184489;23;20021;-86
2021/01/09 03:46:21;;;;;;;5.25;4.70;;;5.20;99.90;;;;;;6158949;23;20005;-87
2021/01/09 03:49:01;;;;;;;5.53;4.78;;;5.00;99.90;;;;;;6158588;23;20009;-85
2021/01/09 03:51:28;;;;;;;5.78;5.05;;;4.80;99.90;;;;;;6185315;23;20071;-85
2021/01/09 03:53:54;;;;;;;6.15;4.53;;;4.90;99.90;;;;;;6185324;23;19997;-86
2021/01/09 03:56:22;;;;;;;5.88;4.65;;;4.80;99.90;;;;;;6158794;23;20133;-87
2021/01/09 03:59:06;;;;;;;4.90;4.40;;;4.80;99.90;;;;;;6158306;23;20092;-88
2021/01/09 04:01:34;;;;;;;4.72;4.30;;;4.80;99.90;;;;;;6185724;23;20028;-85
2021/01/09 04:04:13;;;;;;;5.25;4.40;;;4.70;99.90;;;;;;6158402;23;19997;-87
2021/01/09 04:06:40;;;;;;;4.95;4.20;;;4.70;99.90;;;;;;6159286;23;20013;-87
2021/01/09 04:09:06;;;;;;;4.75;4.10;;;4.70;99.90;;;;;;6184887;23;20032;-87
2021/01/09 04:11:50;;;;;;;5.28;4.30;;;4.70;99.90;;;;;;6158505;23;20017;-88
2021/01/09 04:14:57;;;;;;;5.35;4.50;;;4.70;99.90;;;;;;6184837;23;20323;-86
2021/01/09 04:17:22;;;;;;;5.05;4.20;;;4.60;99.90;;;;;;6158415;23;20033;-88
2021/01/09 04:19:49;;;;;;;5.00;4.28;;;4.60;99.90;;;;;;6158880;23;20051;-88
2021/01/09 04:22:26;;;;;;;5.53;4.88;;;4.50;99.90;;;;;;6158739;23;20068;-86
2021/01/09 04:24:52;;;;;;;5.32;4.60;;;4.50;99.90;;;;;;6184729;23;20001;-88
2021/01/09 04:27:30;;;;;;;5.05;4.40;;;4.60;99.90;;;;;;6158436;23;20037;-89
2021/01/09 04:30:03;;;;;;;4.97;4.20;;;4.80;99.90;;;;;;6184815;23;19997;-86
2021/01/09 04:32:44;;;;;;;4.82;4.28;;;4.70;99.90;;;;;;6157535;23;20016;-86
2021/01/09 04:35:10;;;;;;;4.57;4.18;;;4.70;99.90;;;;;;6183274;23;20336;-86
2021/01/09 04:37:38;;;;;;;4.78;4.28;;;4.70;99.90;;;;;;6182676;23;20426;-88
2021/01/09 04:41:25;;;;;;;4.70;4.20;;;4.80;99.90;;;;;;6183078;23;20016;-87
2021/01/09 04:43:26;;;;;;;4.93;4.43;;;4.70;99.90;;;;;;6148988;23;20035;-88
2021/01/09 04:45:52;;;;;;;5.22;4.05;;;4.70;99.90;;;;;;6182939;23;20005;-84
2021/01/09 04:48:53;;;;;;;4.45;4.05;;;4.80;99.90;;;;;;6183038;23;20063;-88
2021/01/09 04:51:50;;;;;;;4.40;4.00;;;4.80;99.90;;;;;;6182573;23;20347;-88
2021/01/09 04:55:12;;;;;;;4.57;4.13;;;4.70;99.90;;;;;;6183160;23;20031;-87
2021/01/09 04:57:41;;;;;;;4.63;4.22;;;4.60;99.90;;;;;;6182951;23;20398;-88
2021/01/09 05:00:26;;;;;;;4.38;3.90;;;4.80;99.90;;;;;;6182429;23;20012;-88
2021/01/09 05:03:10;;;;;;;4.75;4.25;;;4.80;99.90;;;;;;6184149;23;20005;-87
2021/01/09 05:05:48;;;;;;;4.38;3.90;;;4.90;99.90;;;;;;6182707;23;20395;-86
2021/01/09 05:08:14;;;;;;;4.50;4.10;;;4.90;99.90;;;;;;6182931;23;20005;-88
2021/01/09 05:10:40;;;;;;;4.85;4.38;;;4.70;99.90;;;;;;6182718;23;20449;-88
2021/01/09 05:13:06;;;;;;;5.00;4.30;;;4.70;99.90;;;;;;6182610;23;20024;-88
2021/01/09 05:15:39;;;;;;;4.40;4.00;;;4.80;99.90;;;;;;6183717;23;20084;-86
2021/01/09 05:18:05;;;;;;;5.03;4.25;;;4.80;99.90;;;;;;6182860;23;20084;-87
2021/01/09 05:20:32;;;;;;;4.35;3.95;;;4.80;99.90;;;;;;6185171;23;20001;-87
2021/01/09 05:23:04;;;;;;;5.25;4.00;;;5.00;99.90;;;;;;6182854;23;20009;-89
2021/01/09 05:25:30;;;;;;;4.70;4.05;;;4.90;99.90;;;;;;6184284;23;20004;-87
2021/01/09 05:27:58;;;;;;;4.60;4.07;;;4.80;99.90;;;;;;6184379;23;20005;-90
2021/01/09 05:30:24;;;;;;;4.60;3.95;;;5.00;99.90;;;;;;6182833;23;20008;-86
2021/01/09 05:32:54;;;;;;;4.72;3.95;;;4.80;99.90;;;;;;6184328;23;20339;-89
2021/01/09 05:35:20;;;;;;;4.72;4.07;;;4.90;99.90;;;;;;6182867;23;20017;-86
2021/01/09 05:37:50;;;;;;;4.50;4.10;;;4.80;99.90;;;;;;6182818;23;20039;-88
2021/01/09 05:40:18;;;;;;;4.40;4.00;;;4.90;99.90;;;;;;6182898;23;20344;-84
2021/01/09 05:42:44;;;;;;;4.15;3.70;;;4.90;99.90;;;;;;6182624;23;20502;-87
2021/01/09 05:45:12;;;;;;;4.53;3.90;;;5.00;99.90;;;;;;6182390;23;20086;-88
2021/01/09 05:47:40;;;;;;;4.18;3.78;;;4.90;99.90;;;;;;6182654;23;20001;-87
2021/01/09 05:50:08;;;;;;;4.38;3.90;;;5.00;99.90;;;;;;6182903;23;20196;-86
2021/01/09 05:52:40;;;;;;;4.30;3.90;;;5.10;99.90;;;;;;6183017;23;20009;-88
2021/01/09 05:55:12;;;;;;;4.13;3.70;;;5.00;99.90;;;;;;6182207;23;20431;-85
2021/01/09 05:57:41;;;;;;;4.20;3.80;;;5.00;99.90;;;;;;6183242;23;20013;-88
2021/01/09 06:00:48;;;;;;;4.20;3.80;;;5.10;99.90;;;;;;6154308;23;20037;-86
2021/01/09 06:03:40;;;;;;;4.30;3.90;;;5.20;99.90;;;;;;6128881;23;20316;-83
2021/01/09 06:06:28;;;;;;;4.60;4.10;;;5.00;99.90;;;;;;6153940;23;20012;-86
2021/01/09 06:09:00;;;;;;;4.82;3.95;;;5.00;99.90;;;;;;6079203;23;20002;-84
2021/01/09 06:11:34;;;;;;;4.80;4.25;;;5.00;99.90;;;;;;6128095;23;20016;-88
2021/01/09 06:14:02;;;;;;;4.40;4.00;;;4.90;99.90;;;;;;6153955;23;20028;-85
2021/01/09 06:16:36;;;;;;;4.57;4.18;;;4.90;99.90;;;;;;6128088;23;20009;-88
2021/01/09 06:19:03;;;;;;;4.75;4.25;;;4.90;99.90;;;;;;6154208;23;20002;-84
2021/01/09 06:21:31;;;;;;;5.85;4.25;;;5.00;99.90;;;;;;6152350;23;20013;-86
2021/01/09 06:24:00;;;;;;;4.60;4.20;;;4.90;99.90;;;;;;6154146;23;20073;-86
2021/01/09 06:26:28;;;;;;;5.85;4.65;;;4.80;99.90;;;;;;6153371;23;20013;-88
2021/01/09 06:29:03;;;;;;;5.75;4.75;;;4.80;99.90;;;;;;6153197;23;20089;-89
2021/01/09 06:31:38;;;;;;;5.15;4.47;;;4.70;99.90;;;;;;6153179;23;20012;-90
2021/01/09 06:34:18;;;;;;;5.72;4.70;;;4.80;99.90;;;;;;6129173;23;20332;-88
2021/01/09 06:36:54;;;;;;;6.28;4.95;;;4.90;99.90;;;;;;6153502;23;20432;-87
2021/01/09 06:44:53;;;;;;;6.03;5.00;;;4.90;99.90;;;;;;6213697;23;20023;-88
2021/01/09 06:47:26;;;;;;;4.90;4.40;;;4.70;99.90;;;;;;6186101;23;20051;-85
2021/01/09 06:50:15;;;;;;;5.57;4.85;;;4.60;99.90;;;;;;6187596;23;19997;-89
2021/01/09 06:56:07;;;;;;;7.65;5.40;;;4.70;99.90;;;;;;6213360;23;20062;-88
2021/01/09 06:59:33;;;;;;;6.15;5.10;;;4.70;99.90;;;;;;6186718;23;20001;-84
2021/01/09 07:02:30;;;;;;;6.38;5.35;;;4.80;99.90;;;;;;6178602;23;20327;-84
2021/01/09 07:08:06;;;;;;;6.25;5.03;;;4.70;99.90;;;;;;6186532;23;20044;-92
2021/01/09 07:10:59;;;;;;;6.40;5.13;;;4.70;99.90;;;;;;6183146;23;20462;-90
2021/01/09 07:13:52;;;;;;;7.90;5.70;;;4.70;99.90;;;;;;6182476;23;20009;-91
2021/01/09 07:16:22;;;;;;;7.00;5.05;;;4.50;99.90;;;;;;6159363;23;20343;-89
2021/01/09 07:22:35;;;;;;;6.40;5.30;;;4.60;99.90;;;;;;6090265;23;20140;-87
2021/01/09 07:28:48;;;;;;;6.05;5.15;;;4.50;99.90;;;;;;6105797;23;20032;-88
2021/01/09 07:37:51;;;;;;;9.18;5.65;;;4.70;99.90;;;;;;6185117;23;20032;-85
2021/01/09 07:41:01;;;;;;;5.90;5.30;;;4.60;99.90;;;;;;6185158;23;20004;-88
2021/01/09 07:44:13;;;;;;;6.45;5.15;;;4.70;99.90;;;;;;6159088;23;20327;-87
2021/01/09 07:47:05;;;;;;;7.07;5.32;;;4.70;99.90;;;;;;6158413;23;20008;-86
2021/01/09 07:50:06;;;;;;;6.22;5.22;;;4.80;99.90;;;;;;6159223;23;20449;-90
2021/01/09 07:56:57;;;;;;;6.25;5.00;;;4.90;99.90;;;;;;6070540;23;20029;-91
2021/01/09 07:59:32;;;;;;;5.43;4.85;;;4.90;99.90;;;;;;6156159;23;20021;-85
2021/01/09 08:01:58;;;;;;;5.38;4.80;;;4.90;99.90;;;;;;6158556;23;20005;-86
2021/01/09 08:04:36;;;;;;;7.20;5.07;;;4.90;99.90;;;;;;6158261;23;20032;-87
2021/01/09 08:07:08;;;;;;;6.93;5.53;;;5.00;99.90;;;;;;6158292;23;20012;-86
2021/01/09 08:09:39;;;;;;;7.22;5.10;;;5.00;99.90;;;;;;6158468;23;20324;-87
2021/01/09 08:12:05;;;;;;;7.50;5.00;;;5.10;99.90;;;;;;6157777;23;20009;-87
2021/01/09 08:14:31;;;;;;;5.90;4.85;;;5.20;99.90;;;;;;6158447;23;20116;-84
2021/01/09 08:17:08;;;;;;;6.30;5.40;;;5.20;99.90;;;;;;6158131;23;20055;-87
2021/01/09 08:19:53;;;;;;;8.07;5.30;;;5.20;99.90;;;;;;6157794;23;20313;-87
2021/01/09 08:22:19;;;;;;;7.90;5.13;;;5.20;99.90;;;;;;6184645;23;20387;-86
2021/01/09 08:25:22;;;;;;;6.03;4.95;;;5.30;99.90;;;;;;6158041;23;20482;-84
2021/01/09 08:27:53;;;;;;;6.20;5.10;;;5.30;99.90;;;;;;6157963;23;20016;-88
2021/01/09 08:30:50;;;;;;;7.25;5.68;;;5.40;99.90;;;;;;6092926;23;20635;-90
2021/01/09 08:33:16;;;;;;;10.55;5.60;;;5.50;99.90;;;;;;6068541;23;20093;-87
2021/01/09 08:39:16;;;;;;;6.63;5.47;;;5.40;99.90;;;;;;6007539;23;20019;-85
2021/01/09 08:41:42;;;;;;;6.38;5.35;;;5.40;99.90;;;;;;6012097;23;20018;-87
2021/01/09 08:44:47;;;;;;;7.05;5.72;;;5.30;99.90;;;;;;6093471;23;20060;-90
2021/01/09 08:47:16;;;;;;;7.18;5.55;;;5.40;99.90;;;;;;6052557;23;20034;-87
2021/01/09 08:49:49;;;;;;;7.88;5.60;;;5.40;99.90;;;;;;6040701;23;20508;-88
2021/01/09 08:52:57;;;;;;;6.88;5.75;;;5.30;99.90;;;;;;6064783;23;20382;-90
2021/01/09 08:55:38;;;;;;;8.07;6.10;;;5.30;99.90;;;;;;6064834;23;20010;-85
2021/01/09 08:58:06;;;;;;;;;;;5.30;99.90;;;;;;6065559;23;20015;-86
2021/01/09 09:00:32;;;;;;;10.05;6.30;;;5.40;99.90;;;;;;6078483;23;20388;-85
2021/01/09 09:03:03;;;;;;;10.63;6.70;;;5.40;99.90;;;;;;6178318;23;20016;-86
2021/01/09 09:05:30;;;;;;;8.25;7.03;;;5.40;99.90;;;;;;6183225;23;20009;-86
2021/01/09 09:08:00;;;;;;;15.40;9.82;;;5.40;99.90;;;;;;6182981;23;20101;-84
2021/01/09 09:10:28;;;;;;;;;;;5.80;99.90;;;;;;6162941;23;20312;-85
2021/01/09 09:12:53;;;;;;;19.83;11.82;;;5.90;99.90;;;;;;6188528;23;19940;-90
2021/01/09 09:15:29;;;;;;;29.55;17.00;;;5.90;99.90;;;;;;6185469;23;20008;-90
2021/01/09 09:17:56;;;;;;;12.07;7.95;;;6.00;99.90;;;;;;6186174;23;20431;-90
2021/01/09 09:20:34;;;;;;;11.27;7.15;;;5.90;99.90;;;;;;6183373;23;20001;-88
2021/01/09 09:23:14;;;;;;;8.77;7.25;;;5.80;99.90;;;;;;6172786;23;20032;-87
2021/01/09 09:25:40;;;;;;;9.90;7.32;;;5.90;99.90;;;;;;6176924;23;20009;-86
2021/01/09 09:28:06;;;;;;;11.75;8.05;;;5.80;99.90;;;;;;6178803;23;20024;-87
2021/01/09 09:30:32;;;;;;;11.48;8.68;;;5.70;99.90;;;;;;6181991;23;20008;-86
2021/01/09 09:33:24;;;;;;;12.60;9.05;;;5.90;99.90;;;;;;6181514;23;20016;-87
2021/01/09 09:35:51;;;;;;;10.25;7.72;;;6.20;99.90;;;;;;6182334;23;20323;-88
2021/01/09 09:38:27;;;;;;;10.95;8.13;;;5.80;99.90;;;;;;6181192;23;20414;-85
2021/01/09 09:41:32;;;;;;;9.48;7.03;;;5.90;99.90;;;;;;6183417;23;20033;-87
2021/01/09 09:43:59;;;;;;;10.10;7.28;;;5.60;99.90;;;;;;6165139;23;20012;-86
2021/01/09 09:46:26;;;;;;;13.68;6.88;;;5.50;99.90;;;;;;6180624;23;20391;-85
2021/01/09 09:48:58;;;;;;;9.57;6.95;;;5.50;99.90;;;;;;6180106;23;20009;-83
2021/01/09 09:51:34;;;;;;;10.32;7.03;;;5.40;99.90;;;;;;6181044;23;20474;-86
2021/01/09 09:54:00;;;;;;;10.27;6.82;;;5.30;99.90;;;;;;6179405;23;20423;-85
2021/01/09 09:56:26;;;;;;;10.88;7.72;;;5.30;99.90;;;;;;6184180;23;20044;-88
2021/01/09 09:59:04;;;;;;;10.18;7.20;;;5.60;99.90;;;;;;6181111;23;20005;-85
2021/01/09 10:01:29;;;;;;;12.10;8.52;;;5.50;99.90;;;;;;6183307;23;20024;-88
2021/01/09 10:03:56;;;;;;;15.25;10.07;;;5.90;99.90;;;;;;6178952;23;20001;-85
2021/01/09 10:06:23;;;;;;;18.08;11.52;;;6.20;99.90;;;;;;6181204;23;20009;-84
2021/01/09 10:08:48;;;;;;;15.77;10.95;;;6.40;99.90;;;;;;6183037;23;20007;-84
2021/01/09 10:11:15;;;;;;;19.88;11.25;;;6.50;99.90;;;;;;6179028;23;20088;-87
2021/01/09 10:13:41;;;;;;;15.13;10.60;;;6.50;99.90;;;;;;6181154;23;20016;-86
2021/01/09 10:16:07;;;;;;;13.25;9.13;;;6.30;99.90;;;;;;6183743;23;20016;-88
2021/01/09 10:18:36;;;;;;;13.32;9.18;;;6.20;99.90;;;;;;6183083;23;20431;-87
2021/01/09 10:21:03;;;;;;;14.32;9.82;;;6.20;99.90;;;;;;6183589;23;19997;-91
2021/01/09 10:23:29;;;;;;;21.45;13.40;;;5.90;99.90;;;;;;6180013;23;20009;-90
2021/01/09 10:25:57;;;;;;;16.67;11.13;;;6.30;99.90;;;;;;6181041;23;20055;-81
2021/01/09 10:28:24;;;;;;;10.60;8.02;;;6.40;99.90;;;;;;6182376;23;20009;-88
2021/01/09 10:30:52;;;;;;;11.32;7.88;;;6.10;99.90;;;;;;6183800;23;20319;-86
2021/01/09 10:33:21;;;;;;;11.43;7.93;;;5.90;99.90;;;;;;6182396;23;20036;-83
2021/01/09 10:35:56;;;;;;;12.68;8.40;;;6.00;99.90;;;;;;6181784;23;20005;-87
2021/01/09 10:38:24;;;;;;;13.60;8.13;;;5.90;99.90;;;;;;6183747;23;20004;-88
2021/01/09 10:40:50;;;;;;;12.02;7.75;;;6.10;99.90;;;;;;6182096;23;20037;-87
2021/01/09 10:43:15;;;;;;;12.75;8.35;;;6.10;99.90;;;;;;6183129;23;20004;-83
2021/01/09 10:45:41;;;;;;;9.88;7.20;;;6.10;99.90;;;;;;6181933;23;20436;-86
2021/01/09 10:48:07;;;;;;;11.77;8.50;;;6.10;99.90;;;;;;6183431;23;20327;-86
2021/01/09 10:50:33;;;;;;;10.48;7.70;;;5.90;99.90;;;;;;6181915;23;20012;-86
2021/01/09 10:52:59;;;;;;;11.43;8.63;;;5.90;99.90;;;;;;6183238;23;20040;-86
2021/01/09 10:55:24;;;;;;;12.88;8.30;;;6.00;99.90;;;;;;6182099;23;20327;-86
2021/01/09 10:57:50;;;;;;;10.00;7.15;;;6.00;99.90;;;;;;6183117;23;20009;-84
2021/01/09 11:00:17;;;;;;;11.07;7.88;;;6.10;99.90;;;;;;6184073;23;20005;-82
2021/01/09 11:02:42;;;;;;;12.05;8.35;;;5.90;99.90;;;;;;6183288;23;20017;-86
2021/01/09 11:05:09;;;;;;;12.73;8.80;;;5.80;99.90;;;;;;6183681;23;20001;-86
2021/01/09 11:07:35;;;;;;;60.80;31.30;;;5.80;99.90;;;;;;6184374;23;20009;-84
2021/01/09 11:10:01;;;;;;;15.45;10.18;;;6.00;99.90;;;;;;6182796;23;20009;-85
2021/01/09 11:12:26;;;;;;;11.43;7.82;;;6.00;99.90;;;;;;6183799;23;20044;-87
2021/01/09 11:14:52;;;;;;;14.50;7.35;;;5.80;99.90;;;;;;6183908;23;20513;-85
2021/01/09 11:17:18;;;;;;;12.35;8.18;;;5.90;99.90;;;;;;6186022;23;20005;-91
2021/01/09 11:19:44;;;;;;;16.13;10.48;;;6.20;99.90;;;;;;6185376;23;20001;-84
2021/01/09 11:22:10;;;;;;;47.17;25.90;;;6.90;99.90;;;;;;6184072;23;20009;-82
2021/01/09 11:24:39;;;;;;;14.07;9.63;;;7.40;99.90;;;;;;6183834;23;20059;-84
2021/01/09 11:27:06;;;;;;;13.48;9.32;;;7.00;99.90;;;;;;6182950;23;20435;-83
2021/01/09 11:29:33;;;;;;;10.93;7.72;;;7.10;99.90;;;;;;6183271;23;20319;-84
2021/01/09 11:32:02;;;;;;;11.73;8.05;;;6.70;99.90;;;;;;6185326;23;20495;-86
2021/01/09 11:34:29;;;;;;;13.43;7.88;;;6.20;99.90;;;;;;6184586;23;20005;-85
2021/01/09 11:36:55;;;;;;;10.15;7.82;;;6.30;99.90;;;;;;6158864;23;20029;-86
2021/01/09 11:39:21;;;;;;;14.55;8.45;;;6.30;99.90;;;;;;6183207;23;20016;-84
2021/01/09 11:41:47;;;;;;;9.75;7.53;;;6.20;99.90;;;;;;6184111;23;20001;-89
2021/01/09 11:44:15;;;;;;;10.80;7.78;;;6.10;99.90;;;;;;6183473;23;20335;-88
2021/01/09 11:46:40;;;;;;;10.82;7.63;;;6.10;99.90;;;;;;6184929;23;20362;-83
2021/01/09 11:49:06;;;;;;;13.35;8.88;;;5.90;99.90;;;;;;6184365;23;20463;-84
2021/01/09 11:51:32;;;;;;;9.70;7.70;;;6.30;99.90;;;;;;6183837;23;20439;-87
2021/01/09 11:53:58;;;;;;;14.73;8.10;;;6.50;99.90;;;;;;6184920;23;20084;-84
2021/01/09 11:56:25;;;;;;;11.60;8.43;;;6.70;99.90;;;;;;6184467;23;20002;-84
2021/01/09 11:58:50;;;;;;;11.85;8.27;;;6.60;99.90;;;;;;6182114;23;20013;-84
2021/01/09 12:01:16;;;;;;;10.90;8.05;;;6.40;99.90;;;;;;6184901;23;20021;-92
2021/01/09 12:03:42;;;;;;;11.65;8.05;;;6.40;99.90;;;;;;6184306;23;20651;-86
2021/01/09 12:06:08;;;;;;;10.98;7.80;;;6.50;99.90;;;;;;6183674;23;20052;-89
2021/01/09 12:08:37;;;;;;;10.25;8.30;;;6.60;99.90;;;;;;6181020;23;20008;-91
2021/01/09 12:11:03;;;;;;;13.48;8.85;;;6.60;99.90;;;;;;6181056;23;20084;-84
2021/01/09 12:13:28;;;;;;;13.52;8.88;;;6.80;99.90;;;;;;6183230;23;20032;-91
2021/01/09 12:15:54;;;;;;;11.52;8.60;;;6.80;99.90;;;;;;6184580;23;20430;-86
2021/01/09 12:18:21;;;;;;;13.07;8.90;;;6.70;99.90;;;;;;6181527;23;20005;-90
2021/01/09 12:20:48;;;;;;;12.18;8.27;;;6.60;99.90;;;;;;6182113;23;20013;-89
2021/01/09 12:23:14;;;;;;;14.40;8.15;;;6.60;99.90;;;;;;6183205;23;20080;-84
2021/01/09 12:25:41;;;;;;;11.80;8.07;;;6.40;99.90;;;;;;6183176;23;20012;-84
2021/01/09 12:28:07;;;;;;;11.50;8.05;;;6.50;99.90;;;;;;6184949;23;20383;-84
2021/01/09 12:30:35;;;;;;;12.48;8.60;;;6.80;99.90;;;;;;6183867;23;20470;-85
2021/01/09 12:33:01;;;;;;;10.50;7.47;;;6.80;99.90;;;;;;6131736;23;20282;-83
2021/01/09 12:35:27;;;;;;;12.40;8.43;;;6.80;99.90;;;;;;6148640;23;20138;-86
2021/01/09 12:38:24;;;;;;;11.95;8.10;;;6.60;99.90;;;;;;6125647;23;20393;-84
2021/01/09 12:40:53;;;;;;;13.25;8.50;;;6.30;99.90;;;;;;6124540;23;20423;-86
2021/01/09 12:43:25;;;;;;;12.05;8.95;;;6.50;99.90;;;;;;6124280;23;20037;-87
2021/01/09 12:45:54;;;;;;;16.25;9.10;;;6.70;99.90;;;;;;6125398;23;20006;-85
2021/01/09 12:48:20;;;;;;;12.35;9.38;;;6.80;99.90;;;;;;6124080;23;20014;-83
2021/01/09 12:50:46;;;;;;;14.55;9.52;;;6.90;99.90;;;;;;6123120;23;20010;-85
2021/01/09 12:53:12;;;;;;;12.93;9.40;;;6.70;99.90;;;;;;6124173;23;20075;-83
2021/01/09 12:55:38;;;;;;;11.82;8.45;;;6.70;99.90;;;;;;6124066;23;20005;-85
2021/01/09 12:58:04;;;;;;;11.13;8.43;;;6.50;99.90;;;;;;6123374;23;20037;-84
2021/01/09 13:00:30;;;;;;;13.70;9.02;;;6.30;99.90;;;;;;6123574;23;20006;-86
2021/01/09 13:02:55;;;;;;;11.88;8.68;;;6.30;99.90;;;;;;6125255;23;19998;-85
2021/01/09 13:05:21;;;;;;;9.80;8.10;;;6.40;99.90;;;;;;6123381;23;20006;-84
2021/01/09 13:07:47;;;;;;;12.73;9.25;;;6.20;99.90;;;;;;6125335;23;20064;-84
2021/01/09 13:10:13;;;;;;;12.27;8.77;;;6.10;99.90;;;;;;6123419;23;20002;-85
2021/01/09 13:12:39;;;;;;;12.65;8.43;;;6.50;99.90;;;;;;6123370;23;20018;-83
2021/01/09 13:15:05;;;;;;;12.73;8.77;;;6.20;99.90;;;;;;6123698;23;20013;-84
2021/01/09 13:17:31;;;;;;;13.27;9.30;;;6.30;99.90;;;;;;6125668;23;20057;-83
2021/01/09 13:19:58;;;;;;;13.15;9.05;;;6.30;99.90;;;;;;6125140;23;20005;-83
2021/01/09 13:22:24;;;;;;;12.05;9.52;;;6.40;99.90;;;;;;6123159;23;20036;-85
2021/01/09 13:24:52;;;;;;;13.80;9.55;;;6.30;99.90;;;;;;6124548;23;19998;-82
2021/01/09 13:27:18;;;;;;;13.98;9.43;;;6.10;99.90;;;;;;6125383;23;20002;-83
2021/01/09 13:29:43;;;;;;;15.27;9.73;;;6.10;99.90;;;;;;6124766;23;20013;-82
2021/01/09 13:32:09;;;;;;;16.48;9.38;;;6.10;99.90;;;;;;6135455;23;20030;-81
2021/01/09 13:34:35;;;;;;;16.00;9.80;;;6.40;99.90;;;;;;6128007;23;20005;-85
2021/01/09 13:37:05;;;;;;;12.40;9.18;;;6.50;99.90;;;;;;6127976;23;20052;-83
2021/01/09 13:39:31;;;;;;;13.07;9.80;;;6.60;99.90;;;;;;6127797;23;20002;-86
2021/01/09 13:41:58;;;;;;;13.18;9.65;;;6.50;99.90;;;;;;6128178;23;20037;-82
2021/01/09 13:44:24;;;;;;;13.75;9.57;;;6.50;99.90;;;;;;6128088;23;20013;-83
2021/01/09 13:46:50;;;;;;;10.50;8.52;;;6.40;99.90;;;;;;6154442;23;20016;-84
2021/01/09 13:49:16;;;;;;;12.98;9.50;;;6.40;99.90;;;;;;6127904;23;20005;-86
2021/01/09 13:51:42;;;;;;;13.52;9.13;;;6.30;99.90;;;;;;6127674;23;20048;-82
2021/01/09 13:54:09;;;;;;;15.43;10.38;;;6.40;99.90;;;;;;6154102;23;20339;-85
2021/01/09 13:56:36;;;;;;;14.45;9.60;;;6.40;99.90;;;;;;6154307;23;20475;-85
2021/01/09 13:59:07;;;;;;;12.88;10.20;;;6.30;99.90;;;;;;6128672;23;20088;-85